AXY57M EDDW-EPPO
Flight info
| Callsign | AXY57M |
|---|---|
| Flight time | N/A |
| Altitude | 37000 |
| Route | GESTO L619 DENKO |
| Aircraft | E190/M-VGDW/C |
Departure
| Time | 2026-04-28 20:09 |
|---|---|
| Airport | Bremen Airport (EDDW) |
Arrival
| Time | N/A |
|---|---|
| Airport | Poznań-Ławica Airport (EPPO) |
| Time | Latitude | Longitude | Altitude | Speed | Heading |
|---|---|---|---|---|---|
| 2026-04-28 19:57 | 53.05047 | 8.78407 | 12 ft | 0 kts | 229° |
| 2026-04-28 20:03 | 53.05052 | 8.78417 | 12 ft | 2 kts | 229° |
| 2026-04-28 20:03 | 53.05062 | 8.78437 | 12 ft | 2 kts | 240° |
| 2026-04-28 20:03 | 53.05067 | 8.78459 | 13 ft | 2 kts | 257° |
| 2026-04-28 20:03 | 53.05069 | 8.78484 | 14 ft | 2 kts | 274° |
| 2026-04-28 20:04 | 53.05066 | 8.78508 | 14 ft | 2 kts | 290° |
| 2026-04-28 20:04 | 53.05059 | 8.78530 | 13 ft | 2 kts | 307° |
| 2026-04-28 20:04 | 53.05053 | 8.78542 | 13 ft | 1 kts | 317° |
| 2026-04-28 20:04 | 53.05049 | 8.78548 | 13 ft | 0 kts | 319° |
| 2026-04-28 20:06 | 53.05050 | 8.78546 | 13 ft | 3 kts | 319° |
| 2026-04-28 20:06 | 53.05126 | 8.78438 | 15 ft | 20 kts | 317° |
| 2026-04-28 20:06 | 53.05183 | 8.78247 | 13 ft | 15 kts | 288° |
| 2026-04-28 20:07 | 53.05175 | 8.78042 | 11 ft | 22 kts | 246° |
| 2026-04-28 20:07 | 53.05114 | 8.77888 | 11 ft | 25 kts | 226° |
| 2026-04-28 20:07 | 53.04939 | 8.77578 | 13 ft | 28 kts | 221° |
| 2026-04-28 20:07 | 53.04764 | 8.77448 | 14 ft | 23 kts | 179° |
| 2026-04-28 20:08 | 53.04659 | 8.77514 | 14 ft | 9 kts | 99° |
| 2026-04-28 20:08 | 53.04660 | 8.77537 | 14 ft | 0 kts | 88° |
| 2026-04-28 20:08 | 53.04660 | 8.77542 | 13 ft | 3 kts | 88° |
| 2026-04-28 20:09 | 53.04673 | 8.78093 | 9 ft | 91 kts | 87° |
| 2026-04-28 20:09 | 53.04708 | 8.79518 | 153 ft | 142 kts | 86° |
| 2026-04-28 20:09 | 53.04750 | 8.81173 | 912 ft | 150 kts | 85° |
| 2026-04-28 20:09 | 53.04816 | 8.82937 | 1716 ft | 165 kts | 83° |
| 2026-04-28 20:10 | 53.04906 | 8.84955 | 2504 ft | 191 kts | 85° |
| 2026-04-28 20:10 | 53.04981 | 8.87157 | 3702 ft | 197 kts | 84° |
| 2026-04-28 20:10 | 53.05077 | 8.89305 | 4993 ft | 194 kts | 83° |
| 2026-04-28 20:10 | 53.05331 | 8.91606 | 5778 ft | 215 kts | 73° |
| 2026-04-28 20:11 | 53.05739 | 8.94133 | 6400 ft | 244 kts | 73° |
| 2026-04-28 20:11 | 53.06220 | 8.96846 | 7588 ft | 252 kts | 70° |
| 2026-04-28 20:11 | 53.06793 | 8.99590 | 8649 ft | 261 kts | 71° |
| 2026-04-28 20:11 | 53.07319 | 9.02472 | 9693 ft | 269 kts | 72° |
| 2026-04-28 20:12 | 53.07650 | 9.05542 | 10744 ft | 277 kts | 78° |
| 2026-04-28 20:12 | 53.07958 | 9.08734 | 11684 ft | 287 kts | 77° |
| 2026-04-28 20:12 | 53.08283 | 9.12038 | 12515 ft | 300 kts | 77° |
| 2026-04-28 20:12 | 53.08510 | 9.14331 | 13047 ft | 310 kts | 77° |
| 2026-04-28 20:13 | 53.08982 | 9.19108 | 14240 ft | 323 kts | 77° |
| 2026-04-28 20:13 | 53.09347 | 9.22806 | 15246 ft | 328 kts | 77° |
| 2026-04-28 20:13 | 53.09718 | 9.26562 | 16284 ft | 331 kts | 77° |
| 2026-04-28 20:13 | 53.10084 | 9.30288 | 17295 ft | 334 kts | 77° |
| 2026-04-28 20:14 | 53.10458 | 9.34095 | 18262 ft | 338 kts | 77° |
| 2026-04-28 20:14 | 53.10835 | 9.37956 | 19211 ft | 342 kts | 77° |
| 2026-04-28 20:14 | 53.11214 | 9.41851 | 20126 ft | 347 kts | 76° |
| 2026-04-28 20:14 | 53.11597 | 9.45799 | 21042 ft | 351 kts | 76° |
| 2026-04-28 20:15 | 53.11984 | 9.49795 | 21943 ft | 354 kts | 76° |
| 2026-04-28 20:15 | 53.12374 | 9.53842 | 22788 ft | 359 kts | 76° |
| 2026-04-28 20:15 | 53.12770 | 9.57961 | 23656 ft | 363 kts | 76° |
| 2026-04-28 20:15 | 53.13164 | 9.62074 | 24473 ft | 367 kts | 76° |
| 2026-04-28 20:16 | 53.13562 | 9.66254 | 25294 ft | 370 kts | 77° |
| 2026-04-28 20:16 | 53.13965 | 9.70493 | 26093 ft | 373 kts | 77° |
| 2026-04-28 20:16 | 53.14367 | 9.74750 | 26915 ft | 375 kts | 77° |
| 2026-04-28 20:16 | 53.14769 | 9.79012 | 27652 ft | 379 kts | 77° |
| 2026-04-28 20:17 | 53.15180 | 9.83394 | 28406 ft | 382 kts | 77° |
| 2026-04-28 20:17 | 53.15588 | 9.87761 | 29108 ft | 386 kts | 77° |
| 2026-04-28 20:17 | 53.16003 | 9.92216 | 29825 ft | 389 kts | 76° |
| 2026-04-28 20:17 | 53.16415 | 9.96670 | 30528 ft | 391 kts | 76° |
| 2026-04-28 20:18 | 53.16824 | 10.01099 | 31160 ft | 395 kts | 76° |
| 2026-04-28 20:18 | 53.17106 | 10.04160 | 31559 ft | 397 kts | 76° |
| 2026-04-28 20:18 | 53.17288 | 10.10355 | 32313 ft | 411 kts | 88° |
| 2026-04-28 20:18 | 53.16903 | 10.15042 | 32928 ft | 416 kts | 93° |
| 2026-04-28 20:19 | 53.16464 | 10.19761 | 33601 ft | 416 kts | 92° |
| 2026-04-28 20:19 | 53.16028 | 10.24516 | 34319 ft | 414 kts | 92° |
| 2026-04-28 20:19 | 53.15599 | 10.29204 | 34962 ft | 412 kts | 92° |
| 2026-04-28 20:19 | 53.15168 | 10.33904 | 35473 ft | 411 kts | 92° |
| 2026-04-28 20:20 | 53.14737 | 10.38578 | 35869 ft | 412 kts | 93° |
| 2026-04-28 20:20 | 53.14304 | 10.43272 | 36199 ft | 414 kts | 93° |
| 2026-04-28 20:20 | 53.13863 | 10.48009 | 36636 ft | 416 kts | 93° |
| 2026-04-28 20:20 | 53.13419 | 10.52773 | 37091 ft | 418 kts | 93° |
| 2026-04-28 20:21 | 53.12976 | 10.57480 | 37335 ft | 412 kts | 94° |
| 2026-04-28 20:21 | 53.12529 | 10.62249 | 37369 ft | 424 kts | 94° |
| 2026-04-28 20:21 | 53.12067 | 10.67138 | 37383 ft | 435 kts | 95° |
| 2026-04-28 20:21 | 53.11588 | 10.72173 | 37390 ft | 447 kts | 95° |
| 2026-04-28 20:22 | 53.11100 | 10.77279 | 37380 ft | 457 kts | 95° |
| 2026-04-28 20:22 | 53.10079 | 10.87891 | 37380 ft | 467 kts | 95° |
| 2026-04-28 20:23 | 53.09056 | 10.98465 | 37375 ft | 465 kts | 95° |
| 2026-04-28 20:23 | 53.08020 | 11.09090 | 37365 ft | 466 kts | 95° |
| 2026-04-28 20:24 | 53.06981 | 11.19633 | 37361 ft | 467 kts | 95° |
| 2026-04-28 20:24 | 53.05909 | 11.30307 | 37360 ft | 468 kts | 95° |
| 2026-04-28 20:25 | 53.04838 | 11.40902 | 37362 ft | 467 kts | 95° |
| 2026-04-28 20:25 | 53.03769 | 11.51500 | 37360 ft | 467 kts | 95° |